Terminal Aerodrome Forecast
Issued by NWS

Home | Current Version | Previous Version | Text Only | Print | Product List | Glossary On
Versions: 1 2 3 4 5 6 7 8 9 10 11 12 13 14 15 16 17 18 19
000
FTUS42 KMHX 182300
TAFPGV
TAF
KPGV 182321Z 1900/1924 06008KT P6SM SCT030 OVC050
     FM190300 05012KT 4SM RA BR OVC015
     FM191200 04012KT 4SM RA OVC007
     FM191400 04010G16KT 4SM RA OVC010
      AMD LTD TO CLD VIS AND WIND=

USA.gov is the U.S. government's official web portal to all federal, state and local government web resources and services.